sensor_id;sensor_type;location;lat;lon;timestamp;temperature;humidity
15296;DHT22;7749;49.964;7.890;2023-11-19T00:00:11;9.30;99.90
15296;DHT22;7749;49.964;7.890;2023-11-19T00:02:41;9.30;99.90
15296;DHT22;7749;49.964;7.890;2023-11-19T00:05:10;9.30;99.90
15296;DHT22;7749;49.964;7.890;2023-11-19T00:07:41;9.30;99.90
15296;DHT22;7749;49.964;7.890;2023-11-19T00:10:10;9.30;99.90
15296;DHT22;7749;49.964;7.890;2023-11-19T00:12:43;9.30;99.90
15296;DHT22;7749;49.964;7.890;2023-11-19T00:15:16;9.30;99.90
15296;DHT22;7749;49.964;7.890;2023-11-19T00:17:49;9.30;99.90
15296;DHT22;7749;49.964;7.890;2023-11-19T00:20:18;9.40;99.90
15296;DHT22;7749;49.964;7.890;2023-11-19T00:22:46;9.30;99.90
15296;DHT22;7749;49.964;7.890;2023-11-19T00:25:20;9.40;99.90
15296;DHT22;7749;49.964;7.890;2023-11-19T00:27:51;9.40;99.90
15296;DHT22;7749;49.964;7.890;2023-11-19T00:30:21;9.40;99.90
15296;DHT22;7749;49.964;7.890;2023-11-19T00:32:48;9.40;99.90
15296;DHT22;7749;49.964;7.890;2023-11-19T00:35:16;9.40;99.90
15296;DHT22;7749;49.964;7.890;2023-11-19T00:37:43;9.40;99.90
15296;DHT22;7749;49.964;7.890;2023-11-19T00:40:13;9.40;99.90
15296;DHT22;7749;49.964;7.890;2023-11-19T00:42:43;9.40;99.90
15296;DHT22;7749;49.964;7.890;2023-11-19T00:45:11;9.40;99.90
15296;DHT22;7749;49.964;7.890;2023-11-19T00:47:39;9.40;99.90
15296;DHT22;7749;49.964;7.890;2023-11-19T00:50:08;9.50;99.90
15296;DHT22;7749;49.964;7.890;2023-11-19T00:52:39;9.40;99.90
15296;DHT22;7749;49.964;7.890;2023-11-19T00:55:07;9.40;99.90
15296;DHT22;7749;49.964;7.890;2023-11-19T00:57:35;9.40;99.90
15296;DHT22;7749;49.964;7.890;2023-11-19T01:00:06;9.40;99.90
15296;DHT22;7749;49.964;7.890;2023-11-19T01:02:47;9.40;99.90
15296;DHT22;7749;49.964;7.890;2023-11-19T01:05:18;9.30;99.90
15296;DHT22;7749;49.964;7.890;2023-11-19T01:07:49;9.30;99.90
15296;DHT22;7749;49.964;7.890;2023-11-19T01:10:17;9.30;99.90
15296;DHT22;7749;49.964;7.890;2023-11-19T01:12:46;9.40;99.90
15296;DHT22;7749;49.964;7.890;2023-11-19T01:15:13;9.40;99.90
15296;DHT22;7749;49.964;7.890;2023-11-19T01:17:41;9.40;99.90
15296;DHT22;7749;49.964;7.890;2023-11-19T01:20:19;9.50;99.90
15296;DHT22;7749;49.964;7.890;2023-11-19T01:22:48;9.60;99.90
15296;DHT22;7749;49.964;7.890;2023-11-19T01:25:16;9.60;99.90
15296;DHT22;7749;49.964;7.890;2023-11-19T01:27:43;9.50;99.90
15296;DHT22;7749;49.964;7.890;2023-11-19T01:30:11;9.60;99.90
15296;DHT22;7749;49.964;7.890;2023-11-19T01:32:42;9.50;99.90
15296;DHT22;7749;49.964;7.890;2023-11-19T01:35:09;9.50;99.90
15296;DHT22;7749;49.964;7.890;2023-11-19T01:37:37;9.70;99.90
15296;DHT22;7749;49.964;7.890;2023-11-19T01:40:05;9.70;99.90
15296;DHT22;7749;49.964;7.890;2023-11-19T01:42:38;9.80;99.90
15296;DHT22;7749;49.964;7.890;2023-11-19T01:45:06;9.80;99.90
15296;DHT22;7749;49.964;7.890;2023-11-19T01:47:35;9.80;99.90
15296;DHT22;7749;49.964;7.890;2023-11-19T01:50:06;9.70;99.90
15296;DHT22;7749;49.964;7.890;2023-11-19T01:52:35;9.80;99.90
15296;DHT22;7749;49.964;7.890;2023-11-19T01:55:05;9.70;99.90
15296;DHT22;7749;49.964;7.890;2023-11-19T01:57:35;9.80;99.90
15296;DHT22;7749;49.964;7.890;2023-11-19T02:00:06;9.80;99.90
15296;DHT22;7749;49.964;7.890;2023-11-19T02:02:34;9.70;99.90
15296;DHT22;7749;49.964;7.890;2023-11-19T02:05:03;9.70;99.90
15296;DHT22;7749;49.964;7.890;2023-11-19T02:07:30;9.80;99.90
15296;DHT22;7749;49.964;7.890;2023-11-19T02:09:58;9.80;99.90
15296;DHT22;7749;49.964;7.890;2023-11-19T02:12:27;9.80;99.90
15296;DHT22;7749;49.964;7.890;2023-11-19T02:15:06;9.80;99.90
15296;DHT22;7749;49.964;7.890;2023-11-19T02:17:33;9.80;99.90
15296;DHT22;7749;49.964;7.890;2023-11-19T02:20:05;9.80;99.90
15296;DHT22;7749;49.964;7.890;2023-11-19T02:22:38;9.90;99.90
15296;DHT22;7749;49.964;7.890;2023-11-19T02:25:17;9.90;99.90
15296;DHT22;7749;49.964;7.890;2023-11-19T02:27:53;9.90;99.90
15296;DHT22;7749;49.964;7.890;2023-11-19T02:30:24;10.00;99.90
15296;DHT22;7749;49.964;7.890;2023-11-19T02:32:56;10.00;99.90
15296;DHT22;7749;49.964;7.890;2023-11-19T02:35:31;10.00;99.90
15296;DHT22;7749;49.964;7.890;2023-11-19T02:37:59;10.10;99.90
15296;DHT22;7749;49.964;7.890;2023-11-19T02:40:27;10.00;99.90
15296;DHT22;7749;49.964;7.890;2023-11-19T02:42:56;10.00;99.90
15296;DHT22;7749;49.964;7.890;2023-11-19T02:45:24;10.10;99.90
15296;DHT22;7749;49.964;7.890;2023-11-19T02:47:53;10.00;99.90
15296;DHT22;7749;49.964;7.890;2023-11-19T02:50:21;10.10;99.90
15296;DHT22;7749;49.964;7.890;2023-11-19T02:52:55;10.10;99.90
15296;DHT22;7749;49.964;7.890;2023-11-19T02:55:24;10.10;99.90
15296;DHT22;7749;49.964;7.890;2023-11-19T02:57:52;10.00;99.90
15296;DHT22;7749;49.964;7.890;2023-11-19T03:00:22;10.10;99.90
15296;DHT22;7749;49.964;7.890;2023-11-19T03:02:59;10.10;99.90
15296;DHT22;7749;49.964;7.890;2023-11-19T03:05:32;10.00;99.90
15296;DHT22;7749;49.964;7.890;2023-11-19T03:08:00;10.00;99.90
15296;DHT22;7749;49.964;7.890;2023-11-19T03:10:28;10.00;99.90
15296;DHT22;7749;49.964;7.890;2023-11-19T03:12:56;10.10;99.90
15296;DHT22;7749;49.964;7.890;2023-11-19T03:15:24;10.10;99.90
15296;DHT22;7749;49.964;7.890;2023-11-19T03:17:51;10.00;99.90
15296;DHT22;7749;49.964;7.890;2023-11-19T03:20:19;10.00;99.90
15296;DHT22;7749;49.964;7.890;2023-11-19T03:22:48;10.00;99.90
15296;DHT22;7749;49.964;7.890;2023-11-19T03:25:15;10.00;99.90
15296;DHT22;7749;49.964;7.890;2023-11-19T03:27:43;10.10;99.90
15296;DHT22;7749;49.964;7.890;2023-11-19T03:30:11;10.10;99.90
15296;DHT22;7749;49.964;7.890;2023-11-19T03:32:39;10.10;99.90
15296;DHT22;7749;49.964;7.890;2023-11-19T03:35:06;10.10;99.90
15296;DHT22;7749;49.964;7.890;2023-11-19T03:37:34;10.10;99.90
15296;DHT22;7749;49.964;7.890;2023-11-19T03:40:03;10.00;99.90
15296;DHT22;7749;49.964;7.890;2023-11-19T03:42:31;10.10;99.90
15296;DHT22;7749;49.964;7.890;2023-11-19T03:44:59;10.10;99.90
15296;DHT22;7749;49.964;7.890;2023-11-19T03:47:26;10.20;99.90
15296;DHT22;7749;49.964;7.890;2023-11-19T03:49:55;10.20;99.90
15296;DHT22;7749;49.964;7.890;2023-11-19T03:52:22;10.20;99.90
15296;DHT22;7749;49.964;7.890;2023-11-19T03:54:50;10.20;99.90
15296;DHT22;7749;49.964;7.890;2023-11-19T03:57:17;10.20;99.90
15296;DHT22;7749;49.964;7.890;2023-11-19T03:59:46;10.20;99.90
15296;DHT22;7749;49.964;7.890;2023-11-19T04:02:13;10.20;99.90
15296;DHT22;7749;49.964;7.890;2023-11-19T04:04:41;10.20;99.90
15296;DHT22;7749;49.964;7.890;2023-11-19T04:07:08;10.30;99.90
15296;DHT22;7749;49.964;7.890;2023-11-19T04:09:36;10.30;99.90
15296;DHT22;7749;49.964;7.890;2023-11-19T04:12:05;10.30;99.90
15296;DHT22;7749;49.964;7.890;2023-11-19T04:14:32;10.30;99.90
15296;DHT22;7749;49.964;7.890;2023-11-19T04:17:00;10.30;99.90
15296;DHT22;7749;49.964;7.890;2023-11-19T04:19:27;10.30;99.90
15296;DHT22;7749;49.964;7.890;2023-11-19T04:21:55;10.20;99.90
15296;DHT22;7749;49.964;7.890;2023-11-19T04:24:22;10.20;99.90
15296;DHT22;7749;49.964;7.890;2023-11-19T04:26:50;10.20;99.90
15296;DHT22;7749;49.964;7.890;2023-11-19T04:29:17;10.20;99.90
15296;DHT22;7749;49.964;7.890;2023-11-19T04:31:45;10.20;99.90
15296;DHT22;7749;49.964;7.890;2023-11-19T04:34:13;10.30;99.90
15296;DHT22;7749;49.964;7.890;2023-11-19T04:36:40;10.20;99.90
15296;DHT22;7749;49.964;7.890;2023-11-19T04:39:08;10.30;99.90
15296;DHT22;7749;49.964;7.890;2023-11-19T04:41:36;10.30;99.90
15296;DHT22;7749;49.964;7.890;2023-11-19T04:44:04;10.30;99.90
15296;DHT22;7749;49.964;7.890;2023-11-19T04:46:31;10.30;99.90
15296;DHT22;7749;49.964;7.890;2023-11-19T04:48:59;10.20;99.90
15296;DHT22;7749;49.964;7.890;2023-11-19T04:51:26;10.30;99.90
15296;DHT22;7749;49.964;7.890;2023-11-19T04:53:53;10.20;99.90
15296;DHT22;7749;49.964;7.890;2023-11-19T04:56:21;10.20;99.90
15296;DHT22;7749;49.964;7.890;2023-11-19T04:58:50;10.20;99.90
15296;DHT22;7749;49.964;7.890;2023-11-19T05:01:17;10.30;99.90
15296;DHT22;7749;49.964;7.890;2023-11-19T05:03:45;10.20;99.90
15296;DHT22;7749;49.964;7.890;2023-11-19T05:06:13;10.30;99.90
15296;DHT22;7749;49.964;7.890;2023-11-19T05:08:40;10.30;99.90
15296;DHT22;7749;49.964;7.890;2023-11-19T05:11:08;10.30;99.90
15296;DHT22;7749;49.964;7.890;2023-11-19T05:13:37;10.30;99.90
15296;DHT22;7749;49.964;7.890;2023-11-19T05:16:05;10.30;99.90
15296;DHT22;7749;49.964;7.890;2023-11-19T05:18:33;10.30;99.90
15296;DHT22;7749;49.964;7.890;2023-11-19T05:21:00;10.30;99.90
15296;DHT22;7749;49.964;7.890;2023-11-19T05:23:28;10.30;99.90
15296;DHT22;7749;49.964;7.890;2023-11-19T05:25:55;10.30;99.90
15296;DHT22;7749;49.964;7.890;2023-11-19T05:28:25;10.30;99.90
15296;DHT22;7749;49.964;7.890;2023-11-19T05:30:54;10.30;99.90
15296;DHT22;7749;49.964;7.890;2023-11-19T05:33:21;10.20;99.90
15296;DHT22;7749;49.964;7.890;2023-11-19T05:35:49;10.20;99.90
15296;DHT22;7749;49.964;7.890;2023-11-19T05:38:16;10.30;99.90
15296;DHT22;7749;49.964;7.890;2023-11-19T05:40:44;10.20;99.90
15296;DHT22;7749;49.964;7.890;2023-11-19T05:43:11;10.20;99.90
15296;DHT22;7749;49.964;7.890;2023-11-19T05:45:39;10.20;99.90
15296;DHT22;7749;49.964;7.890;2023-11-19T05:48:06;10.30;99.90
15296;DHT22;7749;49.964;7.890;2023-11-19T05:50:34;10.20;99.90
15296;DHT22;7749;49.964;7.890;2023-11-19T05:53:01;10.30;99.90
15296;DHT22;7749;49.964;7.890;2023-11-19T05:55:29;10.20;99.90
15296;DHT22;7749;49.964;7.890;2023-11-19T05:57:56;10.20;99.90
15296;DHT22;7749;49.964;7.890;2023-11-19T06:00:23;10.30;99.90
15296;DHT22;7749;49.964;7.890;2023-11-19T06:02:51;10.30;99.90
15296;DHT22;7749;49.964;7.890;2023-11-19T06:05:18;10.30;99.90
15296;DHT22;7749;49.964;7.890;2023-11-19T06:07:46;10.30;99.90
15296;DHT22;7749;49.964;7.890;2023-11-19T06:10:13;10.30;99.90
15296;DHT22;7749;49.964;7.890;2023-11-19T06:12:44;10.30;99.90
15296;DHT22;7749;49.964;7.890;2023-11-19T06:15:13;10.30;99.90
15296;DHT22;7749;49.964;7.890;2023-11-19T06:17:41;10.30;99.90
15296;DHT22;7749;49.964;7.890;2023-11-19T06:20:09;10.30;99.90
15296;DHT22;7749;49.964;7.890;2023-11-19T06:22:39;10.30;99.90
15296;DHT22;7749;49.964;7.890;2023-11-19T06:25:07;10.30;99.90
15296;DHT22;7749;49.964;7.890;2023-11-19T06:27:35;10.30;99.90
15296;DHT22;7749;49.964;7.890;2023-11-19T06:30:03;10.20;99.90
15296;DHT22;7749;49.964;7.890;2023-11-19T06:32:30;10.20;99.90
15296;DHT22;7749;49.964;7.890;2023-11-19T06:34:59;10.20;99.90
15296;DHT22;7749;49.964;7.890;2023-11-19T06:37:27;10.10;99.90
15296;DHT22;7749;49.964;7.890;2023-11-19T06:39:54;10.10;99.90
15296;DHT22;7749;49.964;7.890;2023-11-19T06:42:22;10.10;99.90
15296;DHT22;7749;49.964;7.890;2023-11-19T06:44:49;10.00;99.90
15296;DHT22;7749;49.964;7.890;2023-11-19T06:47:17;10.00;99.90
15296;DHT22;7749;49.964;7.890;2023-11-19T06:49:45;10.10;99.90
15296;DHT22;7749;49.964;7.890;2023-11-19T06:52:12;10.10;99.90
15296;DHT22;7749;49.964;7.890;2023-11-19T06:54:40;10.10;99.90
15296;DHT22;7749;49.964;7.890;2023-11-19T06:57:08;10.10;99.90
15296;DHT22;7749;49.964;7.890;2023-11-19T06:59:36;10.00;99.90
15296;DHT22;7749;49.964;7.890;2023-11-19T07:02:04;10.10;99.90
15296;DHT22;7749;49.964;7.890;2023-11-19T07:04:34;10.00;99.90
15296;DHT22;7749;49.964;7.890;2023-11-19T07:07:02;10.10;99.90
15296;DHT22;7749;49.964;7.890;2023-11-19T07:09:29;10.10;99.90
15296;DHT22;7749;49.964;7.890;2023-11-19T07:11:57;10.10;99.90
15296;DHT22;7749;49.964;7.890;2023-11-19T07:14:25;10.10;99.90
15296;DHT22;7749;49.964;7.890;2023-11-19T07:16:53;10.10;99.90
15296;DHT22;7749;49.964;7.890;2023-11-19T07:19:23;10.10;99.90
15296;DHT22;7749;49.964;7.890;2023-11-19T07:21:50;9.90;99.90
15296;DHT22;7749;49.964;7.890;2023-11-19T07:24:18;9.90;99.90
15296;DHT22;7749;49.964;7.890;2023-11-19T07:26:46;9.80;99.90
15296;DHT22;7749;49.964;7.890;2023-11-19T07:29:17;9.90;99.90
15296;DHT22;7749;49.964;7.890;2023-11-19T07:31:56;9.90;99.90
15296;DHT22;7749;49.964;7.890;2023-11-19T07:34:24;9.90;99.90
15296;DHT22;7749;49.964;7.890;2023-11-19T07:36:52;9.80;99.90
15296;DHT22;7749;49.964;7.890;2023-11-19T07:39:20;9.80;99.90
15296;DHT22;7749;49.964;7.890;2023-11-19T07:41:50;9.80;99.90
15296;DHT22;7749;49.964;7.890;2023-11-19T07:44:18;9.70;99.90
15296;DHT22;7749;49.964;7.890;2023-11-19T07:46:45;9.80;99.90
15296;DHT22;7749;49.964;7.890;2023-11-19T07:49:13;9.80;99.90
15296;DHT22;7749;49.964;7.890;2023-11-19T07:51:40;9.90;99.90
15296;DHT22;7749;49.964;7.890;2023-11-19T07:54:09;10.00;99.90
15296;DHT22;7749;49.964;7.890;2023-11-19T07:56:36;10.10;99.90
15296;DHT22;7749;49.964;7.890;2023-11-19T07:59:04;10.20;99.90
15296;DHT22;7749;49.964;7.890;2023-11-19T08:01:32;10.20;99.90
15296;DHT22;7749;49.964;7.890;2023-11-19T08:03:59;10.20;99.90
15296;DHT22;7749;49.964;7.890;2023-11-19T08:06:29;10.20;99.90
15296;DHT22;7749;49.964;7.890;2023-11-19T08:08:57;10.20;99.90
15296;DHT22;7749;49.964;7.890;2023-11-19T08:11:24;10.40;99.90
15296;DHT22;7749;49.964;7.890;2023-11-19T08:13:52;10.50;99.90
15296;DHT22;7749;49.964;7.890;2023-11-19T08:16:19;10.70;99.90
15296;DHT22;7749;49.964;7.890;2023-11-19T08:18:47;10.80;99.90
15296;DHT22;7749;49.964;7.890;2023-11-19T08:21:14;10.90;99.90
15296;DHT22;7749;49.964;7.890;2023-11-19T08:23:42;11.10;99.90
15296;DHT22;7749;49.964;7.890;2023-11-19T08:26:09;11.30;99.90
15296;DHT22;7749;49.964;7.890;2023-11-19T08:28:37;11.50;99.90
15296;DHT22;7749;49.964;7.890;2023-11-19T08:31:05;11.60;99.90
15296;DHT22;7749;49.964;7.890;2023-11-19T08:33:32;11.70;99.90
15296;DHT22;7749;49.964;7.890;2023-11-19T08:36:00;11.80;99.90
15296;DHT22;7749;49.964;7.890;2023-11-19T08:38:28;12.20;99.90
15296;DHT22;7749;49.964;7.890;2023-11-19T08:40:58;12.50;99.90
15296;DHT22;7749;49.964;7.890;2023-11-19T08:43:27;12.70;99.90
15296;DHT22;7749;49.964;7.890;2023-11-19T08:45:55;12.90;99.90
15296;DHT22;7749;49.964;7.890;2023-11-19T08:48:22;13.00;99.90
15296;DHT22;7749;49.964;7.890;2023-11-19T08:50:50;13.20;99.90
15296;DHT22;7749;49.964;7.890;2023-11-19T08:53:17;13.40;99.90
15296;DHT22;7749;49.964;7.890;2023-11-19T08:55:45;13.60;99.90
15296;DHT22;7749;49.964;7.890;2023-11-19T08:58:12;13.60;99.90
15296;DHT22;7749;49.964;7.890;2023-11-19T09:00:40;13.70;99.90
15296;DHT22;7749;49.964;7.890;2023-11-19T09:03:08;13.80;99.90
15296;DHT22;7749;49.964;7.890;2023-11-19T09:05:37;13.90;99.90
15296;DHT22;7749;49.964;7.890;2023-11-19T09:08:06;13.90;99.90
15296;DHT22;7749;49.964;7.890;2023-11-19T09:10:34;14.00;99.90
15296;DHT22;7749;49.964;7.890;2023-11-19T09:13:01;14.00;99.90
15296;DHT22;7749;49.964;7.890;2023-11-19T09:15:29;14.00;99.90
15296;DHT22;7749;49.964;7.890;2023-11-19T09:17:57;14.10;99.90
15296;DHT22;7749;49.964;7.890;2023-11-19T09:20:24;14.10;99.90
15296;DHT22;7749;49.964;7.890;2023-11-19T09:22:52;14.10;99.90
15296;DHT22;7749;49.964;7.890;2023-11-19T09:25:19;14.10;99.90
15296;DHT22;7749;49.964;7.890;2023-11-19T09:27:47;14.20;99.90
15296;DHT22;7749;49.964;7.890;2023-11-19T09:30:14;14.20;99.90
15296;DHT22;7749;49.964;7.890;2023-11-19T09:32:42;14.20;99.90
15296;DHT22;7749;49.964;7.890;2023-11-19T09:35:12;14.20;99.90
15296;DHT22;7749;49.964;7.890;2023-11-19T09:37:43;14.20;99.90
15296;DHT22;7749;49.964;7.890;2023-11-19T09:40:11;14.20;99.90
15296;DHT22;7749;49.964;7.890;2023-11-19T09:42:43;14.30;99.90
15296;DHT22;7749;49.964;7.890;2023-11-19T09:45:15;14.30;99.90
15296;DHT22;7749;49.964;7.890;2023-11-19T09:47:44;14.40;99.90
15296;DHT22;7749;49.964;7.890;2023-11-19T09:50:19;14.40;99.90
15296;DHT22;7749;49.964;7.890;2023-11-19T09:52:47;14.40;99.90
15296;DHT22;7749;49.964;7.890;2023-11-19T09:55:15;14.40;99.90
15296;DHT22;7749;49.964;7.890;2023-11-19T09:57:43;14.40;99.90
15296;DHT22;7749;49.964;7.890;2023-11-19T10:00:14;14.60;99.90
15296;DHT22;7749;49.964;7.890;2023-11-19T10:02:43;14.80;99.90
15296;DHT22;7749;49.964;7.890;2023-11-19T10:05:14;15.10;99.90
15296;DHT22;7749;49.964;7.890;2023-11-19T10:07:43;15.30;99.90
15296;DHT22;7749;49.964;7.890;2023-11-19T10:10:12;15.40;99.90
15296;DHT22;7749;49.964;7.890;2023-11-19T10:12:46;15.60;99.90
15296;DHT22;7749;49.964;7.890;2023-11-19T10:15:24;15.60;99.90
15296;DHT22;7749;49.964;7.890;2023-11-19T10:17:57;15.50;99.90
15296;DHT22;7749;49.964;7.890;2023-11-19T10:20:25;15.40;99.90
15296;DHT22;7749;49.964;7.890;2023-11-19T10:22:54;15.20;99.90
15296;DHT22;7749;49.964;7.890;2023-11-19T10:25:26;15.00;99.90
15296;DHT22;7749;49.964;7.890;2023-11-19T10:27:55;14.80;99.90
15296;DHT22;7749;49.964;7.890;2023-11-19T10:30:28;14.90;99.90
15296;DHT22;7749;49.964;7.890;2023-11-19T10:33:09;14.80;99.90
15296;DHT22;7749;49.964;7.890;2023-11-19T10:35:55;14.80;99.90
15296;DHT22;7749;49.964;7.890;2023-11-19T10:38:29;15.00;99.90
15296;DHT22;7749;49.964;7.890;2023-11-19T10:40:58;15.10;99.90
15296;DHT22;7749;49.964;7.890;2023-11-19T10:43:26;15.70;99.90
15296;DHT22;7749;49.964;7.890;2023-11-19T10:46:09;15.80;1.00
15296;DHT22;7749;49.964;7.890;2023-11-19T10:48:37;16.80;1.00
15296;DHT22;7749;49.964;7.890;2023-11-19T10:51:06;17.70;99.90
15296;DHT22;7749;49.964;7.890;2023-11-19T10:53:37;19.10;1.00
15296;DHT22;7749;49.964;7.890;2023-11-19T10:56:10;21.30;99.90
15296;DHT22;7749;49.964;7.890;2023-11-19T10:58:44;22.30;1.00
15296;DHT22;7749;49.964;7.890;2023-11-19T11:01:20;24.00;1.00
15296;DHT22;7749;49.964;7.890;2023-11-19T11:03:51;23.50;1.00
15296;DHT22;7749;49.964;7.890;2023-11-19T11:06:22;22.10;99.90
15296;DHT22;7749;49.964;7.890;2023-11-19T11:08:51;23.40;1.00
15296;DHT22;7749;49.964;7.890;2023-11-19T11:11:19;25.30;99.90
15296;DHT22;7749;49.964;7.890;2023-11-19T11:13:54;26.90;99.90
15296;DHT22;7749;49.964;7.890;2023-11-19T11:16:22;26.90;11.10
15296;DHT22;7749;49.964;7.890;2023-11-19T11:18:52;27.90;1.00
15296;DHT22;7749;49.964;7.890;2023-11-19T11:21:24;28.50;1.00
15296;DHT22;7749;49.964;7.890;2023-11-19T11:24:01;25.40;1.00
15296;DHT22;7749;49.964;7.890;2023-11-19T11:33:02;21.00;1.00
15296;DHT22;7749;49.964;7.890;2023-11-19T11:38:14;22.30;1.00
15296;DHT22;7749;49.964;7.890;2023-11-19T11:40:42;23.30;1.00
15296;DHT22;7749;49.964;7.890;2023-11-19T11:43:51;24.50;99.90
15296;DHT22;7749;49.964;7.890;2023-11-19T11:49:06;20.90;1.00
15296;DHT22;7749;49.964;7.890;2023-11-19T11:54:26;18.80;99.90
15296;DHT22;7749;49.964;7.890;2023-11-19T11:57:08;19.00;1.00
15296;DHT22;7749;49.964;7.890;2023-11-19T11:59:46;17.90;99.90
15296;DHT22;7749;49.964;7.890;2023-11-19T12:02:21;17.60;1.00
15296;DHT22;7749;49.964;7.890;2023-11-19T12:04:51;17.40;99.90
15296;DHT22;7749;49.964;7.890;2023-11-19T12:07:24;17.10;1.00
15296;DHT22;7749;49.964;7.890;2023-11-19T12:10:08;16.70;99.90
15296;DHT22;7749;49.964;7.890;2023-11-19T12:12:40;17.20;28.10
15296;DHT22;7749;49.964;7.890;2023-11-19T12:15:09;17.90;99.90
15296;DHT22;7749;49.964;7.890;2023-11-19T12:17:41;18.50;92.60
15296;DHT22;7749;49.964;7.890;2023-11-19T12:20:12;17.60;99.90
15296;DHT22;7749;49.964;7.890;2023-11-19T12:22:42;17.60;99.90
15296;DHT22;7749;49.964;7.890;2023-11-19T12:25:11;17.30;99.90
15296;DHT22;7749;49.964;7.890;2023-11-19T12:27:40;16.80;99.90
15296;DHT22;7749;49.964;7.890;2023-11-19T12:30:08;16.40;1.00
15296;DHT22;7749;49.964;7.890;2023-11-19T12:32:43;16.20;37.90
15296;DHT22;7749;49.964;7.890;2023-11-19T12:35:11;15.90;1.00
15296;DHT22;7749;49.964;7.890;2023-11-19T12:37:42;15.90;1.00
15296;DHT22;7749;49.964;7.890;2023-11-19T12:40:30;16.70;99.90
15296;DHT22;7749;49.964;7.890;2023-11-19T12:42:58;16.90;1.00
15296;DHT22;7749;49.964;7.890;2023-11-19T12:45:36;17.00;1.00
15296;DHT22;7749;49.964;7.890;2023-11-19T12:48:08;17.50;99.90
15296;DHT22;7749;49.964;7.890;2023-11-19T12:50:59;18.30;43.90
15296;DHT22;7749;49.964;7.890;2023-11-19T12:53:29;20.20;1.00
15296;DHT22;7749;49.964;7.890;2023-11-19T12:56:07;20.40;99.90
15296;DHT22;7749;49.964;7.890;2023-11-19T12:58:35;22.60;99.90
15296;DHT22;7749;49.964;7.890;2023-11-19T13:01:07;22.70;99.90
15296;DHT22;7749;49.964;7.890;2023-11-19T13:03:36;23.70;45.50
15296;DHT22;7749;49.964;7.890;2023-11-19T13:06:09;24.60;1.00
15296;DHT22;7749;49.964;7.890;2023-11-19T13:08:47;24.60;1.00
15296;DHT22;7749;49.964;7.890;2023-11-19T13:11:32;21.90;1.00
15296;DHT22;7749;49.964;7.890;2023-11-19T13:14:01;20.30;1.00
15296;DHT22;7749;49.964;7.890;2023-11-19T13:16:32;19.80;99.90
15296;DHT22;7749;49.964;7.890;2023-11-19T13:18:59;21.50;99.90
15296;DHT22;7749;49.964;7.890;2023-11-19T13:21:28;22.90;1.00
15296;DHT22;7749;49.964;7.890;2023-11-19T13:23:57;23.60;1.00
15296;DHT22;7749;49.964;7.890;2023-11-19T13:26:24;23.30;1.00
15296;DHT22;7749;49.964;7.890;2023-11-19T13:28:52;22.20;1.00
15296;DHT22;7749;49.964;7.890;2023-11-19T13:31:19;20.80;1.00
15296;DHT22;7749;49.964;7.890;2023-11-19T13:33:47;22.00;1.00
15296;DHT22;7749;49.964;7.890;2023-11-19T13:36:14;22.50;1.00
15296;DHT22;7749;49.964;7.890;2023-11-19T13:38:44;21.90;1.00
15296;DHT22;7749;49.964;7.890;2023-11-19T13:41:12;22.40;1.00
15296;DHT22;7749;49.964;7.890;2023-11-19T13:43:41;21.40;1.00
15296;DHT22;7749;49.964;7.890;2023-11-19T13:46:08;22.10;1.00
15296;DHT22;7749;49.964;7.890;2023-11-19T13:48:38;21.90;1.00
15296;DHT22;7749;49.964;7.890;2023-11-19T13:51:06;21.50;1.00
15296;DHT22;7749;49.964;7.890;2023-11-19T13:53:33;22.60;1.00
15296;DHT22;7749;49.964;7.890;2023-11-19T13:56:04;23.30;1.00
15296;DHT22;7749;49.964;7.890;2023-11-19T13:58:31;21.40;1.00
15296;DHT22;7749;49.964;7.890;2023-11-19T14:00:59;20.60;1.00
15296;DHT22;7749;49.964;7.890;2023-11-19T14:03:26;20.20;17.70
15296;DHT22;7749;49.964;7.890;2023-11-19T14:05:54;18.80;99.90
15296;DHT22;7749;49.964;7.890;2023-11-19T14:08:22;17.80;1.00
15296;DHT22;7749;49.964;7.890;2023-11-19T14:10:52;16.40;91.40
15296;DHT22;7749;49.964;7.890;2023-11-19T14:13:23;16.50;99.90
15296;DHT22;7749;49.964;7.890;2023-11-19T14:15:51;16.50;99.90
15296;DHT22;7749;49.964;7.890;2023-11-19T14:18:19;16.20;99.90
15296;DHT22;7749;49.964;7.890;2023-11-19T14:20:47;16.20;99.90
15296;DHT22;7749;49.964;7.890;2023-11-19T14:23:17;16.00;99.90
15296;DHT22;7749;49.964;7.890;2023-11-19T14:25:45;16.00;99.90
15296;DHT22;7749;49.964;7.890;2023-11-19T14:28:12;15.70;1.00
15296;DHT22;7749;49.964;7.890;2023-11-19T14:30:40;15.70;1.00
15296;DHT22;7749;49.964;7.890;2023-11-19T14:33:08;15.70;1.00
15296;DHT22;7749;49.964;7.890;2023-11-19T14:35:36;15.90;1.00
15296;DHT22;7749;49.964;7.890;2023-11-19T14:38:03;15.80;1.00
15296;DHT22;7749;49.964;7.890;2023-11-19T14:40:34;15.70;1.00
15296;DHT22;7749;49.964;7.890;2023-11-19T14:43:04;15.50;1.00
15296;DHT22;7749;49.964;7.890;2023-11-19T14:45:32;15.50;99.90
15296;DHT22;7749;49.964;7.890;2023-11-19T14:48:11;15.50;99.90
15296;DHT22;7749;49.964;7.890;2023-11-19T14:50:39;15.70;99.90
15296;DHT22;7749;49.964;7.890;2023-11-19T14:53:06;15.60;99.90
15296;DHT22;7749;49.964;7.890;2023-11-19T14:55:33;15.50;99.90
15296;DHT22;7749;49.964;7.890;2023-11-19T14:58:01;15.20;1.00
15296;DHT22;7749;49.964;7.890;2023-11-19T15:00:36;15.20;99.90
15296;DHT22;7749;49.964;7.890;2023-11-19T15:03:04;15.00;1.00
15296;DHT22;7749;49.964;7.890;2023-11-19T15:05:32;14.90;99.90
15296;DHT22;7749;49.964;7.890;2023-11-19T15:07:59;14.80;1.00
15296;DHT22;7749;49.964;7.890;2023-11-19T15:10:27;14.60;99.90
15296;DHT22;7749;49.964;7.890;2023-11-19T15:12:54;14.60;99.90
15296;DHT22;7749;49.964;7.890;2023-11-19T15:15:21;14.50;1.00
15296;DHT22;7749;49.964;7.890;2023-11-19T15:17:52;14.40;99.90
15296;DHT22;7749;49.964;7.890;2023-11-19T15:20:19;14.30;99.90
15296;DHT22;7749;49.964;7.890;2023-11-19T15:22:48;14.30;1.00
15296;DHT22;7749;49.964;7.890;2023-11-19T15:25:15;14.10;1.00
15296;DHT22;7749;49.964;7.890;2023-11-19T15:27:43;14.00;99.90
15296;DHT22;7749;49.964;7.890;2023-11-19T15:30:11;13.90;1.00
15296;DHT22;7749;49.964;7.890;2023-11-19T15:32:39;13.80;1.00
15296;DHT22;7749;49.964;7.890;2023-11-19T15:35:07;13.80;99.90
15296;DHT22;7749;49.964;7.890;2023-11-19T15:37:36;13.70;1.00
15296;DHT22;7749;49.964;7.890;2023-11-19T15:40:06;13.60;1.00
15296;DHT22;7749;49.964;7.890;2023-11-19T15:42:35;13.60;99.90
15296;DHT22;7749;49.964;7.890;2023-11-19T15:45:03;13.70;99.90
15296;DHT22;7749;49.964;7.890;2023-11-19T15:47:35;13.70;99.90
15296;DHT22;7749;49.964;7.890;2023-11-19T15:50:03;13.60;1.00
15296;DHT22;7749;49.964;7.890;2023-11-19T15:52:31;13.50;99.90
15296;DHT22;7749;49.964;7.890;2023-11-19T15:54:59;13.50;1.00
15296;DHT22;7749;49.964;7.890;2023-11-19T15:57:27;13.40;1.00
15296;DHT22;7749;49.964;7.890;2023-11-19T15:59:54;13.40;1.00
15296;DHT22;7749;49.964;7.890;2023-11-19T16:02:22;13.20;1.00
15296;DHT22;7749;49.964;7.890;2023-11-19T16:04:50;13.20;99.90
15296;DHT22;7749;49.964;7.890;2023-11-19T16:07:17;13.00;1.00
15296;DHT22;7749;49.964;7.890;2023-11-19T16:09:47;12.90;1.00
15296;DHT22;7749;49.964;7.890;2023-11-19T16:12:15;12.70;99.90
15296;DHT22;7749;49.964;7.890;2023-11-19T16:14:43;12.50;1.00
15296;DHT22;7749;49.964;7.890;2023-11-19T16:17:10;12.30;1.00
15296;DHT22;7749;49.964;7.890;2023-11-19T16:19:38;12.20;1.00